Centerville, Ohio
Current Conditions -  °F | °C
As of 2:10 AM on Monday 24 Nov 2014 (Local Time) from KMGY Reporting Station
Light Rain Light Rain  
Wind Chill: 58°   Ceiling: 1400
Heat Index: 58°   Visibility: 8mi
Dew Point: 55°   Wind: 17mph
Humidity: 90%   Direction: 220°SW
Pressure: 29.28"   Gusts: 26mph
Location:  39.6468°N, 84.1683°W
Report Text: KMGY 240710Z AUTO 22015G23KT 8SM -RA OVC014 14/13 A2928 RMK AO2 RAB04 P0000 T01440128
Loading
Personal Weather Stations






























Interactive Weather Map New forecast layout! Learn more

10-Day Weather Forecast

Advertisements
Track Severe Weather on mobile